createdAt,value
2018-12-02T00:02:29.649Z,44.50
2018-12-02T00:04:59.736Z,43.37
2018-12-02T00:07:30.407Z,47.83
2018-12-02T00:10:01.727Z,44.45
2018-12-02T00:12:33.635Z,45.63
2018-12-02T00:15:05.738Z,48.67
2018-12-02T00:17:37.828Z,45.35
2018-12-02T00:20:13.690Z,46.00
2018-12-02T00:22:44.765Z,48.87
2018-12-02T00:25:18.704Z,45.50
2018-12-02T00:27:53.889Z,40.93
2018-12-02T00:30:28.005Z,42.70
2018-12-02T00:33:00.157Z,43.47
2018-12-02T00:35:32.936Z,42.63
2018-12-02T00:38:04.968Z,44.40
2018-12-02T00:40:37.470Z,44.40
2018-12-02T00:43:08.774Z,44.00
2018-12-02T00:45:39.059Z,49.50
2018-12-02T00:48:09.823Z,44.63
2018-12-02T00:50:39.904Z,44.40
2018-12-02T00:53:10.539Z,44.70
2018-12-02T00:55:44.383Z,45.93
2018-12-02T00:58:15.459Z,44.53
2018-12-02T01:00:45.998Z,50.00
2018-12-02T01:03:19.042Z,46.75
2018-12-02T01:05:50.103Z,47.33
2018-12-02T01:08:25.935Z,49.13
2018-12-02T01:10:57.085Z,51.00
2018-12-02T01:13:28.974Z,47.25
2018-12-02T01:15:59.134Z,47.10
2018-12-02T01:18:31.383Z,47.80
2018-12-02T01:21:03.070Z,51.20
2018-12-02T01:23:33.922Z,49.60
2018-12-02T01:26:04.142Z,49.27
2018-12-02T01:28:38.200Z,52.70
2018-12-02T01:31:12.308Z,48.85
2018-12-02T01:33:45.136Z,45.57
2018-12-02T01:36:16.059Z,49.42
2018-12-02T01:38:46.203Z,49.30
2018-12-02T01:41:19.210Z,47.33
2018-12-02T01:43:50.178Z,47.10
2018-12-02T01:46:21.260Z,48.27
2018-12-02T01:48:54.344Z,50.23
2018-12-02T01:51:24.953Z,46.40
2018-12-02T01:53:55.287Z,46.50
2018-12-02T01:56:38.406Z,47.70
2018-12-02T01:59:15.473Z,51.20
2018-12-02T02:01:54.253Z,47.70
2018-12-02T02:04:26.486Z,47.80
2018-12-02T02:07:02.321Z,47.60
2018-12-02T02:09:32.411Z,48.83
2018-12-02T02:12:03.348Z,43.40
2018-12-02T02:14:35.403Z,46.03
2018-12-02T02:17:08.017Z,47.90
2018-12-02T02:19:38.484Z,49.43
2018-12-02T02:22:09.502Z,45.87
2018-12-02T02:24:40.442Z,46.30
2018-12-02T02:27:13.468Z,44.87
2018-12-02T02:29:50.934Z,43.17
2018-12-02T02:32:21.561Z,43.63
2018-12-02T02:34:51.899Z,47.07
2018-12-02T02:37:22.358Z,46.40
2018-12-02T02:39:52.981Z,48.67
2018-12-02T02:42:23.417Z,48.20
2018-12-02T02:44:54.144Z,46.03
2018-12-02T02:47:24.748Z,45.58
2018-12-02T02:49:55.181Z,46.43
2018-12-02T02:52:25.730Z,45.13
2018-12-02T02:54:56.314Z,46.13
2018-12-02T02:57:26.533Z,46.37
2018-12-02T03:00:12.900Z,44.45
2018-12-02T03:02:43.009Z,45.83
2018-12-02T03:05:15.386Z,46.73
2018-12-02T03:07:47.696Z,47.20
2018-12-02T03:10:21.370Z,50.07
2018-12-02T03:12:52.733Z,50.55
2018-12-02T03:15:23.621Z,48.83
2018-12-02T03:17:56.007Z,46.53
2018-12-02T03:20:26.663Z,45.53
2018-12-02T03:22:57.748Z,46.40
2018-12-02T03:25:34.037Z,43.83
2018-12-02T03:28:04.721Z,46.10
2018-12-02T03:30:35.942Z,45.03
2018-12-02T03:33:06.838Z,44.17
2018-12-02T03:35:37.114Z,47.80
2018-12-02T03:38:13.921Z,47.30
2018-12-02T03:40:44.958Z,45.00
2018-12-02T03:43:18.041Z,44.77
2018-12-02T03:45:48.712Z,44.57
2018-12-02T03:48:19.584Z,48.20
2018-12-02T03:50:49.797Z,48.23
2018-12-02T03:53:26.307Z,47.63
2018-12-02T03:55:56.925Z,46.80
2018-12-02T03:58:27.385Z,49.80
2018-12-02T04:00:57.981Z,47.00
2018-12-02T04:03:34.644Z,48.10
2018-12-02T04:06:04.935Z,48.70
2018-12-02T04:08:35.853Z,49.87
2018-12-02T04:11:06.397Z,47.40
2018-12-02T04:13:37.128Z,46.00
2018-12-02T04:16:09.937Z,45.93
2018-12-02T04:18:46.979Z,44.27
2018-12-02T04:21:17.855Z,46.40
2018-12-02T04:23:48.555Z,39.47
2018-12-02T04:26:19.150Z,42.50
2018-12-02T04:28:49.735Z,44.23
2018-12-02T04:31:19.980Z,46.88
2018-12-02T04:33:57.347Z,48.70
2018-12-02T04:36:30.085Z,46.37
2018-12-02T04:39:09.099Z,48.30
2018-12-02T04:41:46.948Z,46.50
2018-12-02T04:44:17.949Z,48.53
2018-12-02T04:46:49.086Z,52.53
2018-12-02T04:49:23.006Z,55.20
2018-12-02T04:51:53.055Z,54.63
2018-12-02T04:54:23.561Z,56.83
2018-12-02T04:56:55.112Z,58.40
2018-12-02T04:59:27.130Z,61.17
2018-12-02T05:01:57.990Z,62.20
2018-12-02T05:04:29.246Z,61.43
2018-12-02T05:06:59.881Z,58.03
2018-12-02T05:09:30.614Z,59.10
2018-12-02T05:12:01.960Z,61.30
2018-12-02T05:14:35.712Z,60.30
2018-12-02T05:17:08.405Z,56.03
2018-12-02T05:19:41.930Z,54.50
2018-12-02T05:22:12.447Z,54.53
2018-12-02T05:24:46.233Z,56.60
2018-12-02T05:27:20.855Z,56.67
2018-12-02T05:29:52.410Z,58.10
2018-12-02T05:32:23.496Z,58.77
2018-12-02T05:34:57.252Z,59.50
2018-12-02T05:37:27.389Z,61.20
2018-12-02T05:39:57.503Z,58.40
2018-12-02T05:42:32.345Z,59.63
2018-12-02T05:45:04.603Z,60.25
2018-12-02T05:47:38.665Z,62.65
2018-12-02T05:50:13.255Z,60.53
2018-12-02T05:52:47.051Z,62.73
2018-12-02T05:55:21.768Z,57.33
2018-12-02T05:57:53.315Z,58.43
2018-12-02T06:00:23.919Z,60.23
2018-12-02T06:02:54.542Z,57.40
2018-12-02T06:05:27.414Z,57.40
2018-12-02T06:08:03.469Z,63.90
2018-12-02T06:10:37.247Z,58.77
2018-12-02T06:13:09.506Z,57.40
2018-12-02T06:15:40.557Z,53.40
2018-12-02T06:18:13.535Z,52.17
2018-12-02T06:20:44.588Z,53.73
2018-12-02T06:23:23.404Z,50.10
2018-12-02T06:25:54.865Z,49.88
2018-12-02T06:28:27.448Z,47.97
2018-12-02T06:30:58.473Z,46.03
2018-12-02T06:33:33.352Z,47.65
2018-12-02T06:36:08.480Z,45.30
2018-12-02T06:38:38.880Z,46.10
2018-12-02T06:41:09.738Z,48.13
2018-12-02T06:43:42.593Z,48.27
2018-12-02T06:46:13.636Z,46.47
2018-12-02T06:48:47.612Z,46.95
2018-12-02T06:51:23.704Z,47.78
2018-12-02T06:53:54.120Z,46.50
2018-12-02T06:56:39.021Z,47.45
2018-12-02T06:59:24.996Z,47.77
2018-12-02T07:02:10.076Z,47.43
2018-12-02T07:04:42.910Z,44.20
2018-12-02T07:07:14.685Z,45.70
2018-12-02T07:09:45.703Z,46.73
2018-12-02T07:12:22.497Z,42.05
2018-12-02T07:14:52.723Z,44.70
2018-12-02T07:17:26.841Z,42.23
2018-12-02T07:20:02.043Z,43.93
2018-12-02T07:22:37.690Z,38.90
2018-12-02T07:25:12.754Z,38.90
2018-12-02T07:27:43.811Z,34.63
2018-12-02T07:30:14.989Z,37.40
2018-12-02T07:32:45.781Z,37.33
2018-12-02T07:35:16.993Z,37.67
2018-12-02T07:37:50.600Z,37.60
2018-12-02T07:40:27.071Z,37.00
2018-12-02T07:42:59.932Z,37.50
2018-12-02T07:45:30.183Z,36.15
2018-12-02T07:48:00.985Z,36.87
2018-12-02T07:50:31.352Z,37.30
2018-12-02T07:53:02.008Z,35.43
2018-12-02T07:55:33.096Z,34.57
2018-12-02T07:58:03.277Z,35.60
2018-12-02T08:00:33.873Z,35.95
2018-12-02T08:03:04.149Z,36.15
2018-12-02T08:05:35.054Z,35.77
2018-12-02T08:08:06.400Z,37.03
2018-12-02T08:10:39.191Z,37.95
2018-12-02T08:13:10.112Z,39.80
2018-12-02T08:15:43.029Z,40.35
2018-12-02T08:18:13.797Z,36.90
2018-12-02T08:20:44.214Z,38.27
2018-12-02T08:23:15.080Z,38.83
2018-12-02T08:25:45.845Z,41.45
2018-12-02T08:28:16.289Z,39.70
2018-12-02T08:30:46.797Z,41.50
2018-12-02T08:33:17.644Z,41.28
2018-12-02T08:35:48.153Z,43.47
2018-12-02T08:38:18.583Z,42.37
2018-12-02T08:40:49.119Z,40.27
2018-12-02T08:43:20.176Z,40.93
2018-12-02T08:45:50.632Z,40.20
2018-12-02T08:48:21.368Z,41.33
2018-12-02T08:50:51.990Z,43.13
2018-12-02T08:53:22.327Z,41.15
2018-12-02T08:55:53.236Z,44.23
2018-12-02T08:58:23.967Z,45.73
2018-12-02T09:00:58.071Z,45.00
2018-12-02T09:03:28.257Z,43.63
2018-12-02T09:06:00.150Z,46.07
2018-12-02T09:08:32.176Z,47.10
2018-12-02T09:11:03.228Z,47.13
2018-12-02T09:13:36.530Z,46.67
2018-12-02T09:16:09.027Z,46.47
2018-12-02T09:18:39.279Z,45.47
2018-12-02T09:21:13.270Z,46.90
2018-12-02T09:23:47.432Z,45.40
2018-12-02T09:26:14.538Z,46.70
2018-12-02T09:28:45.603Z,46.87
2018-12-02T09:31:15.708Z,47.67
2018-12-02T09:33:46.627Z,46.53
2018-12-02T09:36:16.890Z,51.50
2018-12-02T09:38:47.562Z,49.17
2018-12-02T09:41:18.383Z,48.35
2018-12-02T09:43:48.905Z,49.07
2018-12-02T09:46:19.255Z,52.30
2018-12-02T09:48:50.176Z,50.67
2018-12-02T09:51:20.449Z,50.00
2018-12-02T09:53:51.261Z,48.63
2018-12-02T09:56:21.737Z,49.35
2018-12-02T09:58:53.261Z,49.83
2018-12-02T10:01:23.371Z,50.45
2018-12-02T10:03:53.467Z,48.37
2018-12-02T10:06:24.169Z,51.20
2018-12-02T10:08:54.735Z,48.47
2018-12-02T10:11:25.054Z,48.93
2018-12-02T10:13:56.568Z,49.73
2018-12-02T10:16:27.237Z,51.37
2018-12-02T10:18:57.529Z,50.37
2018-12-02T10:21:27.934Z,52.90
2018-12-02T10:23:58.872Z,50.37
2018-12-02T10:26:29.581Z,51.40
2018-12-02T10:28:59.904Z,49.77
2018-12-02T10:31:30.464Z,53.47
2018-12-02T10:34:00.847Z,52.00
2018-12-02T10:36:31.067Z,52.97
2018-12-02T10:39:01.464Z,52.33
2018-12-02T10:41:32.085Z,53.97
2018-12-02T10:44:02.529Z,54.23
2018-12-02T10:46:32.823Z,53.28
2018-12-02T10:49:03.820Z,55.30
2018-12-02T10:51:35.689Z,54.43
2018-12-02T10:54:11.176Z,52.13
2018-12-02T10:56:43.862Z,50.37
2018-12-02T10:59:14.934Z,58.07
2018-12-02T11:01:47.077Z,54.15
2018-12-02T11:04:18.893Z,51.60
2018-12-02T11:06:50.320Z,49.67
2018-12-02T11:09:22.501Z,52.20
2018-12-02T11:11:52.942Z,51.00
2018-12-02T11:14:24.060Z,54.03
2018-12-02T11:16:54.645Z,52.00
2018-12-02T11:19:24.871Z,50.53
2018-12-02T11:21:55.962Z,51.90
2018-12-02T11:24:26.555Z,51.40
2018-12-02T11:26:57.351Z,50.10
2018-12-02T11:29:27.780Z,51.27
2018-12-02T11:31:59.562Z,49.90
2018-12-02T11:34:29.741Z,47.43
2018-12-02T11:36:59.839Z,51.53
2018-12-02T11:39:30.872Z,49.77
2018-12-02T11:42:01.201Z,50.80
2018-12-02T11:44:31.362Z,51.17
2018-12-02T11:47:01.909Z,51.08
2018-12-02T11:49:32.612Z,53.90
2018-12-02T11:52:03.206Z,55.60
2018-12-02T11:54:33.650Z,54.83
2018-12-02T11:57:03.840Z,52.83
2018-12-02T11:59:34.763Z,60.40
2018-12-02T12:02:07.634Z,57.85
2018-12-02T12:04:35.697Z,57.53
2018-12-02T12:07:06.627Z,60.17
2018-12-02T12:09:36.887Z,65.60
2018-12-02T12:12:07.283Z,57.80
2018-12-02T12:14:37.636Z,59.77
2018-12-02T12:17:08.605Z,63.30
2018-12-02T12:19:38.949Z,61.33
2018-12-02T12:22:09.408Z,59.60
2018-12-02T12:24:40.119Z,66.53
2018-12-02T12:27:10.397Z,61.37
2018-12-02T12:29:41.502Z,58.97
2018-12-02T12:32:11.764Z,60.73
2018-12-02T12:34:45.405Z,63.47
2018-12-02T12:37:17.696Z,56.85
2018-12-02T12:39:49.524Z,66.43
2018-12-02T12:42:20.279Z,64.57
2018-12-02T12:44:53.134Z,62.20
2018-12-02T12:47:24.223Z,61.90
2018-12-02T12:49:54.426Z,60.30
2018-12-02T12:52:24.654Z,62.23
2018-12-02T12:54:56.439Z,60.13
2018-12-02T12:57:32.816Z,59.13
2018-12-02T13:00:04.387Z,62.70
2018-12-02T13:02:34.432Z,62.38
2018-12-02T13:05:05.484Z,61.23
2018-12-02T13:07:36.017Z,64.13
2018-12-02T13:10:15.335Z,61.17
2018-12-02T13:12:48.415Z,61.20
2018-12-02T13:15:22.585Z,57.03
2018-12-02T13:18:01.926Z,62.10
2018-12-02T13:20:44.523Z,60.87
2018-12-02T13:23:17.570Z,60.27
2018-12-02T13:25:49.718Z,62.47
2018-12-02T13:28:24.062Z,59.77
2018-12-02T13:30:56.167Z,61.27
2018-12-02T13:33:26.333Z,64.58
2018-12-02T13:35:56.458Z,66.10
2018-12-02T13:38:27.025Z,64.30
2018-12-02T13:40:57.587Z,63.73
2018-12-02T13:43:28.740Z,66.40
2018-12-02T13:45:58.877Z,69.30
2018-12-02T13:48:30.392Z,68.87
2018-12-02T13:51:00.547Z,66.03
2018-12-02T13:53:31.003Z,64.67
2018-12-02T13:56:01.244Z,64.37
2018-12-02T13:58:33.175Z,59.40
2018-12-02T14:01:05.929Z,82.88
2018-12-02T14:03:38.993Z,75.57
2018-12-02T14:06:09.748Z,71.33
2018-12-02T14:08:45.643Z,70.43
2018-12-02T14:11:16.772Z,67.60
2018-12-02T14:13:48.810Z,75.07
2018-12-02T14:16:28.763Z,80.93
2018-12-02T14:19:08.609Z,73.57
2018-12-02T14:21:40.771Z,102.17
2018-12-02T14:24:15.843Z,84.37
2018-12-02T14:26:49.475Z,84.97
2018-12-02T14:29:29.607Z,77.30
2018-12-02T14:32:04.407Z,75.62
2018-12-02T14:34:34.901Z,70.70
2018-12-02T14:37:12.063Z,68.03
2018-12-02T14:39:42.659Z,76.03
2018-12-02T14:42:13.387Z,72.57
2018-12-02T14:44:43.797Z,70.80
2018-12-02T14:47:14.107Z,69.40
2018-12-02T14:49:44.540Z,70.77
2018-12-02T14:52:14.910Z,70.70
2018-12-02T14:54:45.708Z,68.37
2018-12-02T14:57:16.218Z,68.17
2018-12-02T14:59:46.798Z,63.42
2018-12-02T15:02:17.345Z,68.28
2018-12-02T15:04:47.483Z,69.67
2018-12-02T15:07:17.697Z,69.53
2018-12-02T15:09:51.975Z,67.77
2018-12-02T15:12:23.112Z,70.70
2018-12-02T15:14:53.735Z,73.07
2018-12-02T15:17:24.258Z,73.70
2018-12-02T15:19:54.507Z,72.40
2018-12-02T15:22:24.888Z,70.13
2018-12-02T15:24:55.399Z,69.77
2018-12-02T15:27:25.788Z,69.05
2018-12-02T15:29:56.137Z,72.87
2018-12-02T15:32:26.584Z,66.20
2018-12-02T15:34:56.813Z,68.37
2018-12-02T15:37:27.016Z,67.27
2018-12-02T15:39:57.967Z,71.37
2018-12-02T15:42:28.630Z,69.97
2018-12-02T15:44:58.943Z,74.83
2018-12-02T15:47:29.536Z,71.67
2018-12-02T15:49:59.865Z,72.50
2018-12-02T15:52:30.622Z,72.63
2018-12-02T15:55:01.178Z,71.82
2018-12-02T15:57:31.430Z,71.63
2018-12-02T16:00:01.638Z,70.15
2018-12-02T16:02:32.059Z,68.65
2018-12-02T16:05:02.292Z,74.20
2018-12-02T16:07:33.759Z,75.97
2018-12-02T16:10:04.350Z,72.53
2018-12-02T16:12:35.199Z,73.90
2018-12-02T16:15:09.550Z,74.43
2018-12-02T16:17:40.816Z,75.83
2018-12-02T16:20:29.291Z,79.20
2018-12-02T16:22:59.578Z,79.97
2018-12-02T16:25:29.917Z,82.55
2018-12-02T16:28:01.851Z,80.83
2018-12-02T16:30:32.418Z,85.60
2018-12-02T16:33:02.564Z,80.80
2018-12-02T16:35:33.979Z,82.53
2018-12-02T16:38:04.191Z,86.70
2018-12-02T16:40:34.560Z,82.30
2018-12-02T16:43:05.671Z,82.30
2018-12-02T16:45:36.495Z,79.10
2018-12-02T16:48:08.444Z,85.73
2018-12-02T16:50:43.571Z,83.23
2018-12-02T16:53:18.461Z,86.87
2018-12-02T16:56:08.504Z,80.47
2018-12-02T16:58:53.473Z,87.10
2018-12-02T17:01:25.075Z,84.20
2018-12-02T17:03:58.004Z,84.80
2018-12-02T17:06:29.070Z,81.23
2018-12-02T17:09:00.368Z,83.97
2018-12-02T17:11:31.209Z,87.00
2018-12-02T17:14:01.404Z,81.40
2018-12-02T17:16:32.404Z,81.40
2018-12-02T17:19:02.762Z,80.30
2018-12-02T17:21:32.959Z,79.27
2018-12-02T17:24:04.582Z,79.97
2018-12-02T17:26:34.879Z,82.80
2018-12-02T17:29:08.879Z,76.40
2018-12-02T17:31:50.793Z,85.10
2018-12-02T17:34:21.439Z,81.40
2018-12-02T17:36:51.956Z,86.33
2018-12-02T17:39:25.131Z,83.60
2018-12-02T17:42:02.186Z,83.73
2018-12-02T17:44:32.897Z,84.80
2018-12-02T17:47:03.446Z,85.95
2018-12-02T17:49:34.110Z,87.80
2018-12-02T17:52:04.608Z,90.20
2018-12-02T17:54:35.759Z,85.35
2018-12-02T17:57:07.309Z,84.53
2018-12-02T17:59:37.515Z,87.30
2018-12-02T18:02:07.947Z,88.65
2018-12-02T18:04:38.111Z,90.60
2018-12-02T18:07:09.485Z,90.20
2018-12-02T18:09:40.586Z,87.35
2018-12-02T18:12:11.585Z,87.50
2018-12-02T18:14:42.134Z,85.30
2018-12-02T18:17:13.622Z,87.20
2018-12-02T18:19:44.925Z,87.80
2018-12-02T18:22:16.264Z,89.40
2018-12-02T18:24:47.220Z,87.60
2018-12-02T18:27:18.649Z,86.63
2018-12-02T18:29:49.364Z,86.50
2018-12-02T18:32:19.543Z,88.20
2018-12-02T18:34:50.289Z,86.57
2018-12-02T18:37:21.401Z,84.13
2018-12-02T18:39:52.606Z,90.13
2018-12-02T18:42:22.790Z,85.20
2018-12-02T18:44:53.941Z,87.17
2018-12-02T18:47:24.706Z,85.85
2018-12-02T18:49:55.010Z,82.50
2018-12-02T18:52:25.207Z,86.27
2018-12-02T18:54:55.489Z,88.30
2018-12-02T18:57:26.024Z,87.82
2018-12-02T18:59:57.128Z,87.67
2018-12-02T19:02:27.598Z,82.97
2018-12-02T19:04:58.033Z,81.10
2018-12-02T19:07:28.132Z,83.87
2018-12-02T19:10:02.533Z,80.30
2018-12-02T19:12:32.908Z,83.40
2018-12-02T19:15:03.140Z,88.23
2018-12-02T19:17:33.394Z,86.57
2018-12-02T19:20:06.394Z,86.20
2018-12-02T19:22:36.532Z,84.27
2018-12-02T19:25:08.935Z,84.32
2018-12-02T19:27:39.617Z,90.00
2018-12-02T19:30:12.964Z,84.67
2018-12-02T19:32:44.291Z,86.50
2018-12-02T19:35:19.865Z,86.50
2018-12-02T19:37:51.928Z,87.43
2018-12-02T19:40:22.076Z,81.20
2018-12-02T19:42:53.326Z,88.62
2018-12-02T19:45:23.489Z,82.47
2018-12-02T19:47:54.014Z,84.70
2018-12-02T19:50:24.508Z,87.43
2018-12-02T19:52:54.996Z,89.30
2018-12-02T19:55:25.371Z,83.92
2018-12-02T19:57:56.429Z,94.28
2018-12-02T20:00:27.365Z,92.90
2018-12-02T20:02:58.023Z,90.47
2018-12-02T20:05:28.275Z,87.80
2018-12-02T20:08:01.566Z,91.87
2018-12-02T20:10:32.456Z,86.42
2018-12-02T20:13:07.092Z,109.07
2018-12-02T20:15:42.239Z,95.53
2018-12-02T20:18:12.408Z,91.93
2018-12-02T20:20:48.067Z,89.40
2018-12-02T20:23:23.989Z,83.75
2018-12-02T20:25:57.197Z,91.50
2018-12-02T20:28:31.193Z,87.63
2018-12-02T20:31:03.923Z,90.97
2018-12-02T20:33:34.907Z,90.67
2018-12-02T20:36:07.217Z,86.87
2018-12-02T20:38:38.092Z,91.23
2018-12-02T20:41:08.903Z,92.07
2018-12-02T20:43:39.254Z,92.57
2018-12-02T20:46:09.465Z,91.57
2018-12-02T20:48:39.588Z,91.00
2018-12-02T20:51:10.146Z,91.15
2018-12-02T20:53:41.399Z,93.52
2018-12-02T20:56:11.606Z,89.27
2018-12-02T20:58:43.151Z,86.97
2018-12-02T21:01:13.555Z,85.28
2018-12-02T21:03:47.058Z,90.90
2018-12-02T21:06:20.301Z,93.47
2018-12-02T21:08:52.144Z,88.57
2018-12-02T21:11:23.090Z,88.85
2018-12-02T21:13:53.805Z,89.93
2018-12-02T21:16:24.655Z,90.63
2018-12-02T21:18:54.862Z,87.23
2018-12-02T21:21:25.136Z,84.92
2018-12-02T21:23:55.697Z,88.13
2018-12-02T21:26:25.872Z,88.20
2018-12-02T21:28:56.748Z,90.10
2018-12-02T21:31:28.419Z,89.00
2018-12-02T21:33:59.700Z,85.70
2018-12-02T21:36:29.821Z,91.37
2018-12-02T21:39:00.057Z,87.07
2018-12-02T21:41:31.344Z,85.80
2018-12-02T21:44:01.958Z,83.00
2018-12-02T21:46:32.409Z,85.90
2018-12-02T21:49:03.486Z,92.80
2018-12-02T21:51:34.712Z,83.90
2018-12-02T21:54:04.916Z,87.57
2018-12-02T21:56:35.007Z,89.50
2018-12-02T21:59:05.671Z,88.37
2018-12-02T22:01:36.016Z,81.35
2018-12-02T22:04:07.336Z,83.57
2018-12-02T22:06:37.420Z,86.20
2018-12-02T22:09:09.043Z,86.50
2018-12-02T22:11:42.343Z,72.30
2018-12-02T22:14:13.182Z,85.70
2018-12-02T22:16:43.368Z,86.70
2018-12-02T22:19:13.654Z,83.90
2018-12-02T22:21:43.777Z,81.77
2018-12-02T22:24:14.056Z,81.40
2018-12-02T22:26:44.677Z,81.90
2018-12-02T22:29:14.881Z,83.55
2018-12-02T22:31:45.027Z,82.30
2018-12-02T22:34:15.220Z,82.90
2018-12-02T22:36:45.373Z,83.60
2018-12-02T22:39:16.377Z,83.17
2018-12-02T22:41:46.753Z,85.73
2018-12-02T22:44:17.304Z,85.40
2018-12-02T22:46:48.049Z,84.17
2018-12-02T22:49:18.213Z,83.50
2018-12-02T22:51:48.855Z,82.10
2018-12-02T22:54:19.606Z,84.00
2018-12-02T22:56:50.076Z,79.93
2018-12-02T22:59:20.262Z,75.87
2018-12-02T23:01:55.584Z,78.65
2018-12-02T23:04:25.887Z,79.90
2018-12-02T23:06:56.499Z,79.47
2018-12-02T23:09:27.440Z,85.90
2018-12-02T23:11:57.655Z,80.77
2018-12-02T23:14:28.503Z,76.50
2018-12-02T23:17:14.193Z,76.72
2018-12-02T23:19:44.812Z,75.83
2018-12-02T23:22:15.501Z,76.40
2018-12-02T23:24:46.428Z,78.47
2018-12-02T23:27:16.668Z,77.95
2018-12-02T23:29:47.543Z,79.93
2018-12-02T23:32:18.051Z,81.30
2018-12-02T23:34:48.212Z,79.32
2018-12-02T23:37:20.610Z,77.60
2018-12-02T23:39:55.706Z,78.37
2018-12-02T23:42:25.836Z,80.03
2018-12-02T23:44:56.717Z,80.33
2018-12-02T23:47:27.640Z,83.97
2018-12-02T23:49:57.959Z,82.77
2018-12-02T23:52:28.071Z,78.40
2018-12-02T23:54:58.384Z,84.03
2018-12-02T23:57:29.378Z,81.43
2018-12-02T23:59:59.868Z,76.77
